sensor_id;sensor_type;location;lat;lon;timestamp;pressure;altitude;pressure_sealevel;temperature;humidity
59951;BME280;45812;53.540;9.774;2023-04-08T16:11:10;102697.66;;;10.99;81.06
59951;BME280;45812;53.540;9.774;2023-04-08T16:13:35;102702.84;;;11.12;80.99
59951;BME280;45812;53.540;9.774;2023-04-08T16:18:13;102713.19;;;11.16;80.52
59951;BME280;45812;53.540;9.774;2023-04-08T16:20:38;102708.66;;;10.95;81.38
59951;BME280;45812;53.540;9.774;2023-04-08T16:23:04;102709.09;;;10.77;82.17
59951;BME280;45812;53.540;9.774;2023-04-08T16:25:29;102711.13;;;10.63;83.48
59951;BME280;45812;53.540;9.774;2023-04-08T16:27:54;102715.09;;;10.57;83.71
59951;BME280;45812;53.540;9.774;2023-04-08T16:30:57;102716.44;;;10.98;81.59
59951;BME280;45812;53.540;9.774;2023-04-08T16:33:22;102712.81;;;11.43;78.16
59951;BME280;45812;53.540;9.774;2023-04-08T16:35:53;102702.50;;;11.72;76.31
59951;BME280;45812;53.540;9.774;2023-04-08T16:38:19;102712.31;;;11.94;75.84
59951;BME280;45812;53.540;9.774;2023-04-08T16:40:44;102711.06;;;12.09;74.67
59951;BME280;45812;53.540;9.774;2023-04-08T16:43:10;102709.31;;;12.20;73.84
59951;BME280;45812;53.540;9.774;2023-04-08T16:45:36;102709.91;;;12.23;73.56
59951;BME280;45812;53.540;9.774;2023-04-08T16:48:01;102705.16;;;12.27;73.03
59951;BME280;45812;53.540;9.774;2023-04-08T16:50:27;102710.50;;;12.27;72.82
59951;BME280;45812;53.540;9.774;2023-04-08T16:52:52;102708.44;;;12.30;72.51
59951;BME280;45812;53.540;9.774;2023-04-08T16:55:17;102715.81;;;12.38;72.05
59951;BME280;45812;53.540;9.774;2023-04-08T16:57:43;102706.09;;;12.37;72.18
59951;BME280;45812;53.540;9.774;2023-04-08T17:00:09;102711.69;;;12.34;72.03
59951;BME280;45812;53.540;9.774;2023-04-08T17:02:34;102707.59;;;12.30;72.15
59951;BME280;45812;53.540;9.774;2023-04-08T17:05:00;102710.75;;;12.24;72.24
59951;BME280;45812;53.540;9.774;2023-04-08T17:07:25;102701.44;;;12.18;72.69
59951;BME280;45812;53.540;9.774;2023-04-08T17:09:52;102706.91;;;12.17;72.70
59951;BME280;45812;53.540;9.774;2023-04-08T17:12:18;102715.88;;;12.16;73.06
59951;BME280;45812;53.540;9.774;2023-04-08T17:14:43;102706.81;;;12.07;73.73
59951;BME280;45812;53.540;9.774;2023-04-08T17:17:08;102714.94;;;12.05;73.34
59951;BME280;45812;53.540;9.774;2023-04-08T17:19:34;102720.53;;;12.02;73.52
59951;BME280;45812;53.540;9.774;2023-04-08T17:21:59;102722.47;;;12.00;73.51
59951;BME280;45812;53.540;9.774;2023-04-08T17:24:24;102722.00;;;11.95;74.33
59951;BME280;45812;53.540;9.774;2023-04-08T17:26:49;102718.75;;;11.92;73.95
59951;BME280;45812;53.540;9.774;2023-04-08T17:29:15;102722.63;;;11.88;74.13
59951;BME280;45812;53.540;9.774;2023-04-08T17:31:40;102721.44;;;11.80;74.58
59951;BME280;45812;53.540;9.774;2023-04-08T17:34:06;102717.41;;;11.75;75.40
59951;BME280;45812;53.540;9.774;2023-04-08T17:36:31;102726.59;;;11.71;74.87
59951;BME280;45812;53.540;9.774;2023-04-08T17:38:57;102722.88;;;11.62;75.57
59951;BME280;45812;53.540;9.774;2023-04-08T17:41:22;102728.72;;;11.56;75.51
59951;BME280;45812;53.540;9.774;2023-04-08T17:43:47;102727.34;;;11.50;76.01
59951;BME280;45812;53.540;9.774;2023-04-08T17:46:12;102730.13;;;11.49;76.34
59951;BME280;45812;53.540;9.774;2023-04-08T17:48:38;102728.69;;;11.45;76.49
59951;BME280;45812;53.540;9.774;2023-04-08T17:51:05;102732.72;;;11.39;76.25
59951;BME280;45812;53.540;9.774;2023-04-08T17:53:31;102726.41;;;11.40;76.45
59951;BME280;45812;53.540;9.774;2023-04-08T17:55:57;102722.50;;;11.33;76.79
59951;BME280;45812;53.540;9.774;2023-04-08T17:58:23;102731.47;;;11.32;77.53
59951;BME280;45812;53.540;9.774;2023-04-08T18:00:49;102728.94;;;11.31;77.47
59951;BME280;45812;53.540;9.774;2023-04-08T18:03:15;102735.59;;;11.25;77.62
59951;BME280;45812;53.540;9.774;2023-04-08T18:05:40;102741.91;;;11.24;77.36
59951;BME280;45812;53.540;9.774;2023-04-08T18:08:06;102746.50;;;11.22;77.45
59951;BME280;45812;53.540;9.774;2023-04-08T18:10:31;102746.03;;;11.17;78.38
59951;BME280;45812;53.540;9.774;2023-04-08T18:12:56;102747.94;;;11.15;78.18
59951;BME280;45812;53.540;9.774;2023-04-08T18:15:22;102747.31;;;11.11;78.36
59951;BME280;45812;53.540;9.774;2023-04-08T18:17:47;102742.22;;;11.08;78.55
59951;BME280;45812;53.540;9.774;2023-04-08T18:20:13;102746.00;;;11.06;78.80
59951;BME280;45812;53.540;9.774;2023-04-08T18:22:38;102750.59;;;11.04;79.02
59951;BME280;45812;53.540;9.774;2023-04-08T18:25:04;102754.34;;;11.01;78.74
59951;BME280;45812;53.540;9.774;2023-04-08T18:27:30;102757.13;;;11.00;78.55
59951;BME280;45812;53.540;9.774;2023-04-08T18:29:56;102760.75;;;10.99;78.91
59951;BME280;45812;53.540;9.774;2023-04-08T18:32:21;102759.06;;;10.98;79.31
59951;BME280;45812;53.540;9.774;2023-04-08T18:34:49;102765.44;;;10.95;79.21
59951;BME280;45812;53.540;9.774;2023-04-08T18:37:15;102768.22;;;10.93;79.51
59951;BME280;45812;53.540;9.774;2023-04-08T18:39:41;102769.44;;;10.89;79.93
59951;BME280;45812;53.540;9.774;2023-04-08T18:42:07;102772.97;;;10.90;80.14
59951;BME280;45812;53.540;9.774;2023-04-08T18:44:32;102766.06;;;10.87;79.97
59951;BME280;45812;53.540;9.774;2023-04-08T18:46:57;102767.00;;;10.86;80.21
59951;BME280;45812;53.540;9.774;2023-04-08T18:49:23;102772.34;;;10.86;80.18
59951;BME280;45812;53.540;9.774;2023-04-08T18:51:48;102772.34;;;10.86;80.16
59951;BME280;45812;53.540;9.774;2023-04-08T18:54:14;102776.81;;;10.86;80.18
59951;BME280;45812;53.540;9.774;2023-04-08T18:56:39;102782.16;;;10.86;80.36
59951;BME280;45812;53.540;9.774;2023-04-08T18:59:04;102779.38;;;10.87;80.35
59951;BME280;45812;53.540;9.774;2023-04-08T19:01:30;102773.19;;;10.87;80.69
59951;BME280;45812;53.540;9.774;2023-04-08T19:03:56;102779.50;;;10.86;80.55
59951;BME280;45812;53.540;9.774;2023-04-08T19:06:22;102770.03;;;10.82;80.83
59951;BME280;45812;53.540;9.774;2023-04-08T19:08:47;102780.56;;;10.83;81.22
59951;BME280;45812;53.540;9.774;2023-04-08T19:11:12;102780.56;;;10.83;81.30
59951;BME280;45812;53.540;9.774;2023-04-08T19:13:37;102786.88;;;10.82;80.96
59951;BME280;45812;53.540;9.774;2023-04-08T19:16:04;102779.84;;;10.81;80.99
59951;BME280;45812;53.540;9.774;2023-04-08T19:18:30;102778.16;;;10.80;80.61
59951;BME280;45812;53.540;9.774;2023-04-08T19:20:55;102770.88;;;10.82;80.39
59951;BME280;45812;53.540;9.774;2023-04-08T19:23:20;102778.16;;;10.80;80.61
59951;BME280;45812;53.540;9.774;2023-04-08T19:25:46;102780.81;;;10.80;80.31
59951;BME280;45812;53.540;9.774;2023-04-08T19:28:11;102777.28;;;10.80;80.55
59951;BME280;45812;53.540;9.774;2023-04-08T19:30:39;102770.28;;;10.79;80.57
59951;BME280;45812;53.540;9.774;2023-04-08T19:33:05;102767.69;;;10.77;80.99
59951;BME280;45812;53.540;9.774;2023-04-08T19:35:33;102767.09;;;10.74;81.05
59951;BME280;45812;53.540;9.774;2023-04-08T19:37:59;102768.16;;;10.71;81.26
59951;BME280;45812;53.540;9.774;2023-04-08T19:40:24;102762.09;;;10.69;81.02
59951;BME280;45812;53.540;9.774;2023-04-08T19:42:49;102754.47;;;10.65;80.81
59951;BME280;45812;53.540;9.774;2023-04-08T19:45:15;102758.00;;;10.65;81.65
59951;BME280;45812;53.540;9.774;2023-04-08T19:47:41;102758.84;;;10.66;81.45
59951;BME280;45812;53.540;9.774;2023-04-08T19:50:08;102758.22;;;10.62;81.60
59951;BME280;45812;53.540;9.774;2023-04-08T19:52:33;102766.94;;;10.64;82.04
59951;BME280;45812;53.540;9.774;2023-04-08T19:54:59;102763.31;;;10.65;81.68
59951;BME280;45812;53.540;9.774;2023-04-08T19:57:24;102760.66;;;10.65;81.42
59951;BME280;45812;53.540;9.774;2023-04-08T19:59:52;102761.50;;;10.66;81.54
59951;BME280;45812;53.540;9.774;2023-04-08T20:02:18;102765.84;;;10.67;81.55
59951;BME280;45812;53.540;9.774;2023-04-08T20:04:44;102767.69;;;10.66;81.77
59951;BME280;45812;53.540;9.774;2023-04-08T20:07:09;102767.69;;;10.66;81.31
59951;BME280;45812;53.540;9.774;2023-04-08T20:09:35;102774.81;;;10.66;81.32
59951;BME280;45812;53.540;9.774;2023-04-08T20:12:00;102769.59;;;10.64;81.28
59951;BME280;45812;53.540;9.774;2023-04-08T20:14:33;102773.13;;;10.65;81.50
59951;BME280;45812;53.540;9.774;2023-04-08T20:16:59;102777.47;;;10.66;81.94
59951;BME280;45812;53.540;9.774;2023-04-08T20:19:26;102779.28;;;10.65;81.88
59951;BME280;45812;53.540;9.774;2023-04-08T20:21:51;102785.47;;;10.66;82.17
59951;BME280;45812;53.540;9.774;2023-04-08T20:24:17;102772.16;;;10.66;82.20
59951;BME280;45812;53.540;9.774;2023-04-08T20:26:42;102776.50;;;10.67;81.93
59951;BME280;45812;53.540;9.774;2023-04-08T20:29:08;102783.41;;;10.69;82.43
59951;BME280;45812;53.540;9.774;2023-04-08T20:31:33;102778.81;;;10.71;82.14
59951;BME280;45812;53.540;9.774;2023-04-08T20:33:59;102785.84;;;10.72;82.13
59951;BME280;45812;53.540;9.774;2023-04-08T20:36:25;102781.50;;;10.71;82.63
59951;BME280;45812;53.540;9.774;2023-04-08T20:38:53;102790.31;;;10.72;82.63
59951;BME280;45812;53.540;9.774;2023-04-08T20:41:19;102785.97;;;10.71;82.54
59951;BME280;45812;53.540;9.774;2023-04-08T20:43:45;102790.31;;;10.72;82.88
59951;BME280;45812;53.540;9.774;2023-04-08T20:46:10;102790.69;;;10.67;83.50
59951;BME280;45812;53.540;9.774;2023-04-08T20:48:36;102784.63;;;10.65;83.64
59951;BME280;45812;53.540;9.774;2023-04-08T20:51:01;102795.28;;;10.65;83.31
59951;BME280;45812;53.540;9.774;2023-04-08T20:53:27;102793.47;;;10.66;83.12
59951;BME280;45812;53.540;9.774;2023-04-08T20:55:53;102791.53;;;10.68;83.35
59951;BME280;45812;53.540;9.774;2023-04-08T20:58:18;102796.13;;;10.66;83.53
59951;BME280;45812;53.540;9.774;2023-04-08T21:00:44;102792.72;;;10.64;83.71
59951;BME280;45812;53.540;9.774;2023-04-08T21:03:11;102793.16;;;10.57;83.94
59951;BME280;45812;53.540;9.774;2023-04-08T21:05:37;102793.50;;;10.53;84.02
59951;BME280;45812;53.540;9.774;2023-04-08T21:08:02;102795.56;;;10.49;84.55
59951;BME280;45812;53.540;9.774;2023-04-08T21:10:27;102789.72;;;10.44;84.80
59951;BME280;45812;53.540;9.774;2023-04-08T21:12:53;102788.47;;;10.37;85.82
59951;BME280;45812;53.540;9.774;2023-04-08T21:15:18;102783.38;;;10.34;86.24
59951;BME280;45812;53.540;9.774;2023-04-08T21:17:43;102787.22;;;10.30;86.31
59951;BME280;45812;53.540;9.774;2023-04-08T21:20:09;102787.22;;;10.30;87.09
59951;BME280;45812;53.540;9.774;2023-04-08T21:22:34;102780.94;;;10.31;86.78
59951;BME280;45812;53.540;9.774;2023-04-08T21:25:00;102792.44;;;10.31;87.18
59951;BME280;45812;53.540;9.774;2023-04-08T21:27:27;102781.78;;;10.31;87.17
59951;BME280;45812;53.540;9.774;2023-04-08T21:29:52;102791.59;;;10.31;87.49
59951;BME280;45812;53.540;9.774;2023-04-08T21:32:17;102784.69;;;10.28;87.80
59951;BME280;45812;53.540;9.774;2023-04-08T21:34:43;102787.44;;;10.27;88.53
59951;BME280;45812;53.540;9.774;2023-04-08T21:37:08;102785.66;;;10.27;88.71
59951;BME280;45812;53.540;9.774;2023-04-08T21:39:33;102787.44;;;10.27;88.75
59951;BME280;45812;53.540;9.774;2023-04-08T21:41:59;102793.63;;;10.27;89.09
59951;BME280;45812;53.540;9.774;2023-04-08T21:44:25;102786.59;;;10.26;89.05
59951;BME280;45812;53.540;9.774;2023-04-08T21:46:50;102789.38;;;10.25;89.31
59951;BME280;45812;53.540;9.774;2023-04-08T21:49:16;102786.84;;;10.23;89.87
59951;BME280;45812;53.540;9.774;2023-04-08T21:51:41;102787.56;;;10.25;90.08
59951;BME280;45812;53.540;9.774;2023-04-08T21:54:07;102787.44;;;10.27;90.10
59951;BME280;45812;53.540;9.774;2023-04-08T21:56:32;102789.25;;;10.26;90.02
59951;BME280;45812;53.540;9.774;2023-04-08T21:58:57;102790.22;;;10.25;89.74
59951;BME280;45812;53.540;9.774;2023-04-08T22:01:23;102791.31;;;10.23;89.46
59951;BME280;45812;53.540;9.774;2023-04-08T22:03:48;102802.03;;;10.21;89.94
59951;BME280;45812;53.540;9.774;2023-04-08T22:06:13;102798.53;;;10.21;90.00
59951;BME280;45812;53.540;9.774;2023-04-08T22:08:38;102793.09;;;10.22;90.10
59951;BME280;45812;53.540;9.774;2023-04-08T22:11:07;102790.44;;;10.22;90.20
59951;BME280;45812;53.540;9.774;2023-04-08T22:13:35;102790.44;;;10.22;90.32
59951;BME280;45812;53.540;9.774;2023-04-08T22:16:00;102784.16;;;10.23;90.57
59951;BME280;45812;53.540;9.774;2023-04-08T22:18:26;102793.84;;;10.24;90.49
59951;BME280;45812;53.540;9.774;2023-04-08T22:20:51;102788.66;;;10.23;89.96
59951;BME280;45812;53.540;9.774;2023-04-08T22:23:16;102800.53;;;10.17;90.77
59951;BME280;45812;53.540;9.774;2023-04-08T22:25:41;102800.03;;;10.12;91.56
59951;BME280;45812;53.540;9.774;2023-04-08T22:28:07;102793.97;;;10.10;92.05
59951;BME280;45812;53.540;9.774;2023-04-08T22:30:32;102797.47;;;10.11;91.95
59951;BME280;45812;53.540;9.774;2023-04-08T22:32:57;102798.22;;;10.13;92.10
59951;BME280;45812;53.540;9.774;2023-04-08T22:35:22;102788.41;;;10.13;91.83
59951;BME280;45812;53.540;9.774;2023-04-08T22:37:48;102794.38;;;10.17;92.12
59951;BME280;45812;53.540;9.774;2023-04-08T22:40:13;102782.34;;;10.11;91.92
59951;BME280;45812;53.540;9.774;2023-04-08T22:42:38;102796.16;;;10.16;91.98
59951;BME280;45812;53.540;9.774;2023-04-08T22:45:04;102796.16;;;10.16;92.43
59951;BME280;45812;53.540;9.774;2023-04-08T22:47:29;102801.50;;;10.16;92.56
59951;BME280;45812;53.540;9.774;2023-04-08T22:49:55;102797.03;;;10.17;92.38
59951;BME280;45812;53.540;9.774;2023-04-08T22:52:20;102795.22;;;10.17;92.60
59951;BME280;45812;53.540;9.774;2023-04-08T22:54:45;102796.72;;;10.21;92.28
59951;BME280;45812;53.540;9.774;2023-04-08T22:57:11;102791.38;;;10.21;92.49
59951;BME280;45812;53.540;9.774;2023-04-08T22:59:36;102798.41;;;10.22;92.20
59951;BME280;45812;53.540;9.774;2023-04-08T23:02:01;102796.72;;;10.21;91.72
59951;BME280;45812;53.540;9.774;2023-04-08T23:04:26;102792.44;;;10.19;92.05
59951;BME280;45812;53.540;9.774;2023-04-08T23:06:52;102789.03;;;10.17;92.32
59951;BME280;45812;53.540;9.774;2023-04-08T23:09:17;102790.13;;;10.14;92.51
59951;BME280;45812;53.540;9.774;2023-04-08T23:11:43;102803.66;;;10.11;92.44
59951;BME280;45812;53.540;9.774;2023-04-08T23:14:08;102795.88;;;10.08;92.48
59951;BME280;45812;53.540;9.774;2023-04-08T23:16:35;102790.69;;;10.07;92.80
59951;BME280;45812;53.540;9.774;2023-04-08T23:19:00;102798.78;;;10.05;92.54
59951;BME280;45812;53.540;9.774;2023-04-08T23:21:25;102797.81;;;10.06;92.82
59951;BME280;45812;53.540;9.774;2023-04-08T23:23:51;102800.47;;;10.06;92.97
59951;BME280;45812;53.540;9.774;2023-04-08T23:26:19;102804.94;;;10.06;93.32
59951;BME280;45812;53.540;9.774;2023-04-08T23:28:45;102802.19;;;10.07;92.62
59951;BME280;45812;53.540;9.774;2023-04-08T23:31:10;102801.94;;;10.10;92.99
59951;BME280;45812;53.540;9.774;2023-04-08T23:33:36;102801.72;;;10.13;92.89
59951;BME280;45812;53.540;9.774;2023-04-08T23:36:08;102803.19;;;10.17;92.67
59951;BME280;45812;53.540;9.774;2023-04-08T23:38:34;102795.22;;;10.17;91.93
59951;BME280;45812;53.540;9.774;2023-04-08T23:41:01;102790.63;;;10.19;92.04
59951;BME280;45812;53.540;9.774;2023-04-08T23:43:26;102789.78;;;10.19;92.28
59951;BME280;45812;53.540;9.774;2023-04-08T23:45:51;102790.53;;;10.21;92.31
59951;BME280;45812;53.540;9.774;2023-04-08T23:48:17;102792.44;;;10.19;91.69
59951;BME280;45812;53.540;9.774;2023-04-08T23:50:42;102790.97;;;10.15;91.54
59951;BME280;45812;53.540;9.774;2023-04-08T23:53:07;102789.25;;;10.14;91.68
59951;BME280;45812;53.540;9.774;2023-04-08T23:55:32;102791.81;;;10.15;92.20
59951;BME280;45812;53.540;9.774;2023-04-08T23:57:58;102799.91;;;10.14;91.67
